Time;durP1;ratioP1;P1;durP2;ratioP2;P2;SDS_P1;SDS_P2;PMS_P1;PMS_P2;Temp;Humidity;BMP_temperature;BMP_pressure;BME280_temperature;BME280_humidity;BME280_pressure;Samples;Min_cycle;Max_cycle;Signal;HPM_P1;HPM_P2
2022/06/16 00:01:00;;;;;;;7.25;4.15;;;;;;;23.85;50.15;95361.38;5000864;28;20041;-50
2022/06/16 00:03:25;;;;;;;6.22;4.55;;;;;;;23.86;50.11;95365.59;4999610;28;20436;-50
2022/06/16 00:05:51;;;;;;;7.00;4.60;;;;;;;23.86;50.13;95360.88;4982070;28;20044;-51
2022/06/16 00:08:16;;;;;;;7.05;4.72;;;;;;;23.83;50.13;95361.16;5001428;28;20030;-50
2022/06/16 00:13:29;;;;;;;6.85;4.20;;;;;;;23.78;50.53;95356.44;4998010;28;20041;-50
2022/06/16 00:15:54;;;;;;;6.78;4.65;;;;;;;23.74;50.21;95361.44;5003278;28;20108;-50
2022/06/16 00:18:20;;;;;;;7.68;4.40;;;;;;;23.73;50.52;95359.97;5000114;28;20034;-50
2022/06/16 00:20:45;;;;;;;5.68;3.97;;;;;;;23.71;50.26;95359.72;5001872;28;20053;-50
2022/06/16 00:23:11;;;;;;;6.13;4.53;;;;;;;23.72;50.58;95358.47;5000944;28;20037;-50
2022/06/16 00:25:36;;;;;;;8.93;4.68;;;;;;;23.73;50.33;95354.50;4999077;28;20832;-50
2022/06/16 00:28:01;;;;;;;5.90;4.47;;;;;;;23.72;50.31;95369.38;5003036;28;20025;-49
2022/06/16 00:30:27;;;;;;;7.03;4.28;;;;;;;23.70;49.96;95364.41;4983151;28;20091;-50
2022/06/16 00:32:52;;;;;;;5.68;4.45;;;;;;;23.67;50.24;95356.50;5000298;28;20033;-50
2022/06/16 00:35:18;;;;;;;5.88;4.53;;;;;;;23.69;50.00;95359.47;4999880;28;20466;-50
2022/06/16 00:37:43;;;;;;;6.05;4.65;;;;;;;23.65;50.49;95369.91;4997512;28;20405;-50
2022/06/16 00:40:10;;;;;;;9.13;4.68;;;;;;;23.69;50.29;95359.47;4996926;28;20040;-48
2022/06/16 00:42:35;;;;;;;6.93;4.40;;;;;;;23.63;50.12;95361.44;4995822;28;20583;-50
2022/06/16 00:45:01;;;;;;;7.32;4.70;;;;;;;23.65;50.18;95359.00;5000793;28;20084;-51
2022/06/16 00:47:28;;;;;;;6.05;4.50;;;;;;;23.63;49.78;95356.00;4982754;28;20037;-48
2022/06/16 00:49:57;;;;;;;6.38;4.03;;;;;;;23.66;50.22;95355.03;5008102;28;20034;-50
2022/06/16 00:52:26;;;;;;;6.05;4.50;;;;;;;23.67;50.06;95351.78;4983173;28;20030;-49
2022/06/16 00:54:58;;;;;;;5.75;5.15;;;;;;;23.69;49.64;95354.00;4985322;28;20033;-50
2022/06/16 00:57:35;;;;;;;7.93;4.32;;;;;;;23.60;49.93;95351.53;5004826;28;20030;-50
2022/06/16 01:00:03;;;;;;;6.28;4.55;;;;;;;23.59;50.38;95350.09;5003490;28;20034;-50
2022/06/16 01:02:29;;;;;;;8.95;4.55;;;;;;;23.59;50.19;95356.25;4984565;28;20874;-50
2022/06/16 01:04:55;;;;;;;6.43;4.53;;;;;;;23.55;50.31;95344.13;5002151;28;20512;-50
2022/06/16 01:07:24;;;;;;;7.05;4.25;;;;;;;23.58;49.97;95348.59;5003073;28;20026;-50
2022/06/16 01:09:50;;;;;;;5.05;4.22;;;;;;;23.54;49.75;95348.09;4987605;28;20038;-49
2022/06/16 01:15:30;;;;;;;5.77;4.77;;;;;;;23.47;50.10;95348.63;4987108;28;20121;-50
2022/06/16 01:18:06;;;;;;;7.20;4.47;;;;;;;23.51;49.61;95349.09;5000994;28;20041;-50
2022/06/16 01:20:44;;;;;;;6.43;4.55;;;;;;;23.49;49.71;95340.69;4986524;28;20040;-48
2022/06/16 01:23:31;;;;;;;5.70;4.50;;;;;;;23.46;50.15;95352.59;5002449;28;20038;-50
2022/06/16 01:26:17;;;;;;;6.43;4.40;;;;;;;23.46;50.01;95341.69;4996078;28;20381;-49
2022/06/16 01:29:08;;;;;;;6.18;4.10;;;;;;;23.40;50.18;95349.16;4983516;28;20022;-50
2022/06/16 01:32:05;;;;;;;7.05;4.57;;;;;;;23.42;49.61;95347.41;4985123;28;20036;-49
2022/06/16 01:34:30;;;;;;;7.78;4.35;;;;;;;23.46;49.88;95341.69;4979570;28;20026;-50
2022/06/16 01:37:23;;;;;;;6.22;3.83;;;;;;;23.42;50.14;95346.66;5001264;28;20068;-51
2022/06/16 01:40:01;;;;;;;6.03;4.40;;;;;;;23.40;50.18;95332.81;5004002;28;20073;-51
2022/06/16 01:42:35;;;;;;;5.25;4.20;;;;;;;23.37;49.75;95328.34;5003521;28;20141;-49
2022/06/16 01:45:09;;;;;;;6.68;4.53;;;;;;;23.41;49.53;95331.56;5002163;28;20103;-50
2022/06/16 01:47:34;;;;;;;4.93;3.97;;;;;;;23.34;50.20;95332.09;4980622;28;20052;-50
2022/06/16 01:50:12;;;;;;;5.47;3.80;;;;;;;23.33;49.78;95332.59;4986349;28;20057;-50
2022/06/16 01:52:40;;;;;;;6.95;4.25;;;;;;;23.31;50.11;95324.91;4964663;28;20041;-50
2022/06/16 01:55:15;;;;;;;8.32;4.82;;;;;;;23.31;49.99;95319.47;4967469;28;20482;-50
2022/06/16 01:57:51;;;;;;;4.63;3.92;;;;;;;23.34;49.83;95323.91;4966976;28;20037;-50
2022/06/16 02:00:18;;;;;;;6.13;3.90;;;;;;;23.35;50.10;95327.34;4966152;28;20030;-50
2022/06/16 02:02:44;;;;;;;6.45;4.28;;;;;;;23.32;49.93;95326.41;5002135;28;20022;-50
2022/06/16 02:05:15;;;;;;;5.30;4.20;;;;;;;23.31;49.74;95322.19;4984742;28;20029;-48
2022/06/16 02:07:53;;;;;;;6.07;4.70;;;;;;;23.30;49.55;95328.13;4967756;28;20029;-48
2022/06/16 02:10:27;;;;;;;6.38;4.00;;;;;;;23.28;49.53;95320.47;4958474;28;20498;-50
2022/06/16 02:12:56;;;;;;;5.90;4.20;;;;;;;23.30;49.68;95320.69;4969016;28;20038;-49
2022/06/16 02:15:36;;;;;;;6.57;4.05;;;;;;;23.31;49.31;95330.34;4969580;28;20021;-51
2022/06/16 02:18:04;;;;;;;7.55;4.13;;;;;;;23.28;49.24;95328.63;5003057;28;20030;-50
2022/06/16 02:20:37;;;;;;;6.00;3.97;;;;;;;23.24;49.91;95330.88;4989053;28;20033;-50
2022/06/16 02:23:03;;;;;;;6.43;4.03;;;;;;;23.21;49.38;95329.13;4965723;28;20473;-50
2022/06/16 02:25:28;;;;;;;5.45;4.00;;;;;;;23.19;49.51;95339.81;4982472;28;20040;-50
2022/06/16 02:27:53;;;;;;;6.03;4.68;;;;;;;23.20;49.41;95340.53;5004527;28;20025;-51
2022/06/16 02:30:19;;;;;;;5.57;3.78;;;;;;;23.20;49.63;95335.84;5003710;28;20500;-50
2022/06/16 02:33:03;;;;;;;6.50;4.10;;;;;;;23.24;49.61;95335.59;4999796;28;20041;-50
2022/06/16 02:35:28;;;;;;;5.95;4.40;;;;;;;23.21;49.19;95337.31;5002273;28;20415;-50
2022/06/16 02:38:15;;;;;;;5.00;4.03;;;;;;;23.21;49.48;95342.03;4999665;28;20473;-51
2022/06/16 02:41:05;;;;;;;5.43;3.90;;;;;;;23.18;49.60;95343.03;5000535;28;21365;-50
2022/06/16 02:43:35;;;;;;;7.07;4.40;;;;;;;23.19;49.36;95350.69;5001686;28;20148;-50
2022/06/16 02:46:09;;;;;;;5.60;3.88;;;;;;;23.14;49.46;95348.75;4985278;28;20037;-51
2022/06/16 02:48:42;;;;;;;6.35;3.78;;;;;;;23.14;49.57;95354.19;4985621;28;20038;-50
2022/06/16 02:51:13;;;;;;;6.38;3.97;;;;;;;23.18;49.47;95357.38;4981145;28;20409;-50
2022/06/16 02:56:58;;;;;;;5.38;3.88;;;;;;;23.17;49.05;95353.19;4988915;28;20033;-49
2022/06/16 02:59:26;;;;;;;4.63;3.92;;;;;;;23.12;49.65;95356.69;5002016;28;20059;-50
2022/06/16 03:01:52;;;;;;;6.57;3.95;;;;;;;23.12;49.86;95356.69;4985577;28;20040;-51
2022/06/16 03:04:17;;;;;;;6.90;4.50;;;;;;;23.11;49.66;95359.91;4968904;28;20034;-50
2022/06/16 03:06:44;;;;;;;6.22;4.22;;;;;;;23.15;49.93;95355.69;4985083;28;20064;-50
2022/06/16 03:09:10;;;;;;;6.28;4.25;;;;;;;23.15;49.85;95355.69;5002568;28;20029;-50
2022/06/16 03:11:35;;;;;;;6.47;4.03;;;;;;;23.20;49.97;95357.66;5000075;28;20030;-49
2022/06/16 03:14:01;;;;;;;5.93;4.28;;;;;;;23.13;49.90;95358.16;4983590;28;20037;-50
2022/06/16 03:16:27;;;;;;;6.03;3.92;;;;;;;23.13;49.92;95357.41;5000298;28;20034;-49
2022/06/16 03:18:52;;;;;;;9.07;4.35;;;;;;;23.19;50.14;95350.69;5004076;28;20037;-50
2022/06/16 03:21:18;;;;;;;7.35;4.10;;;;;;;23.15;50.42;95361.13;5001844;28;20026;-49
2022/06/16 03:23:44;;;;;;;6.15;4.25;;;;;;;23.15;50.25;95354.94;5002311;28;20092;-48
2022/06/16 03:26:09;;;;;;;6.80;3.85;;;;;;;23.17;49.98;95353.19;5001269;28;20397;-50
2022/06/16 03:28:35;;;;;;;6.82;4.47;;;;;;;23.19;50.23;95352.69;5010776;28;20408;-50
2022/06/16 03:31:00;;;;;;;7.00;4.30;;;;;;;23.19;50.23;95349.97;4999720;28;20030;-48
2022/06/16 03:33:26;;;;;;;5.82;4.07;;;;;;;23.20;50.22;95354.91;5008493;28;20033;-48
2022/06/16 03:35:51;;;;;;;5.95;4.03;;;;;;;23.18;50.12;95349.22;5001481;28;20400;-50
2022/06/16 03:38:40;;;;;;;5.30;4.40;;;;;;;23.15;50.19;95355.69;5000674;28;20029;-50
2022/06/16 03:41:05;;;;;;;7.25;4.50;;;;;;;23.17;50.07;95349.72;4999503;28;20099;-49
2022/06/16 03:43:31;;;;;;;5.40;4.03;;;;;;;23.15;50.36;95355.69;4998877;28;20061;-52
2022/06/16 03:45:56;;;;;;;5.47;4.32;;;;;;;23.15;50.26;95357.66;4999133;28;20125;-48
2022/06/16 03:48:22;;;;;;;7.07;4.50;;;;;;;23.17;50.35;95344.25;4999761;28;20053;-50
2022/06/16 03:50:47;;;;;;;6.38;4.18;;;;;;;23.19;50.52;95347.25;5002364;28;20460;-49
2022/06/16 03:53:13;;;;;;;5.47;4.45;;;;;;;23.14;50.52;95343.28;5001538;28;20444;-48
2022/06/16 03:55:38;;;;;;;7.80;4.10;;;;;;;23.11;50.62;95343.56;4999256;28;20462;-48
2022/06/16 03:58:04;;;;;;;5.53;4.25;;;;;;;23.12;50.22;95351.22;5000693;28;20033;-50
2022/06/16 04:00:30;;;;;;;6.68;4.32;;;;;;;23.12;50.32;95356.69;4980911;28;20080;-49
2022/06/16 04:05:39;;;;;;;11.73;4.43;;;;;;;23.16;50.89;95357.16;4999535;28;20045;-48
2022/06/16 04:08:05;;;;;;;6.18;4.18;;;;;;;23.12;51.06;95351.22;4999723;28;20029;-51
2022/06/16 04:10:31;;;;;;;6.75;4.55;;;;;;;23.07;50.73;95349.25;4999562;28;20107;-51
2022/06/16 04:12:56;;;;;;;6.22;4.63;;;;;;;23.04;50.87;95352.22;5000040;28;20153;-50
2022/06/16 04:15:22;;;;;;;6.97;4.80;;;;;;;23.04;50.71;95360.41;5001058;28;20025;-51
2022/06/16 04:17:47;;;;;;;6.97;5.03;;;;;;;22.94;50.40;95353.72;5000919;28;20029;-50
2022/06/16 04:20:13;;;;;;;6.47;4.30;;;;;;;22.89;50.44;95357.19;5000891;28;20157;-50
2022/06/16 04:22:38;;;;;;;8.40;5.07;;;;;;;22.88;50.92;95363.13;4999476;28;20030;-50
2022/06/16 04:25:05;;;;;;;7.45;4.70;;;;;;;22.88;50.91;95359.16;5003810;28;20037;-51
2022/06/16 04:27:31;;;;;;;6.25;4.85;;;;;;;22.82;51.32;95360.41;4999532;28;20187;-50
2022/06/16 04:29:56;;;;;;;6.53;5.25;;;;;;;22.84;51.10;95368.06;5002488;28;20038;-51
2022/06/16 04:32:22;;;;;;;7.25;5.43;;;;;;;22.83;50.95;95363.88;5001728;28;20029;-50
2022/06/16 04:34:48;;;;;;;8.38;5.15;;;;;;;22.85;50.99;95353.22;5003330;28;20554;-50
2022/06/16 04:37:13;;;;;;;7.63;4.63;;;;;;;22.79;51.48;95355.22;5003391;28;20049;-50
2022/06/16 04:39:39;;;;;;;7.72;5.32;;;;;;;22.88;51.58;95357.69;4984518;28;20425;-49
2022/06/16 04:42:05;;;;;;;6.82;4.53;;;;;;;22.94;51.22;95354.50;5003008;28;20034;-49
2022/06/16 04:44:31;;;;;;;7.25;4.40;;;;;;;22.97;51.32;95356.22;5005914;28;20449;-49
2022/06/16 04:46:57;;;;;;;9.85;4.95;;;;;;;23.03;51.12;95356.94;5004645;28;20049;-49
2022/06/16 04:49:23;;;;;;;8.57;4.60;;;;;;;23.06;51.06;95353.22;5000046;28;20109;-49
2022/06/16 04:51:48;;;;;;;5.90;4.60;;;;;;;23.13;51.41;95357.41;5001473;28;20026;-51
2022/06/16 04:54:14;;;;;;;6.53;4.88;;;;;;;23.23;51.04;95362.09;5005833;28;20425;-52
2022/06/16 04:56:39;;;;;;;8.70;5.30;;;;;;;23.29;50.85;95368.28;4985177;28;20100;-50
2022/06/16 04:59:05;;;;;;;6.97;4.70;;;;;;;23.36;50.65;95359.56;5004694;28;20516;-50
2022/06/16 05:01:30;;;;;;;9.55;5.25;;;;;;;23.44;50.77;95360.53;4999549;28;20527;-51
2022/06/16 05:03:56;;;;;;;7.97;5.13;;;;;;;23.54;50.41;95364.47;5000870;28;20567;-50
2022/06/16 05:06:21;;;;;;;7.93;5.10;;;;;;;23.64;50.31;95357.50;5004057;28;20037;-50
2022/06/16 05:08:48;;;;;;;10.23;5.05;;;;;;;23.80;50.36;95359.44;5001522;28;20014;-49
2022/06/16 05:11:14;;;;;;;11.00;4.97;;;;;;;23.92;49.76;95362.31;5004378;28;20049;-50
2022/06/16 05:13:39;;;;;;;8.43;5.40;;;;;;;23.99;49.70;95348.16;4983997;28;20401;-52
2022/06/16 05:16:05;;;;;;;7.15;4.85;;;;;;;24.20;49.32;95354.72;5003552;28;20141;-51
2022/06/16 05:18:31;;;;;;;10.05;5.05;;;;;;;24.38;48.91;95348.69;5000670;28;20075;-50
2022/06/16 05:21:06;;;;;;;9.07;5.90;;;;;;;24.39;48.86;95355.59;5006460;28;20032;-50
2022/06/16 05:23:31;;;;;;;11.63;6.10;;;;;;;24.47;48.93;95357.28;4999170;28;20095;-49
2022/06/16 05:25:57;;;;;;;11.25;5.78;;;;;;;24.58;49.34;95361.91;5000982;28;20033;-50
2022/06/16 05:28:22;;;;;;;8.73;5.43;;;;;;;24.69;49.03;95356.38;5002336;28;20037;-50
2022/06/16 05:30:48;;;;;;;8.73;6.00;;;;;;;24.84;50.03;95363.69;5001672;28;20048;-51
2022/06/16 05:33:13;;;;;;;10.27;6.13;;;;;;;24.92;50.16;95366.59;5004114;28;20029;-49
2022/06/16 05:35:39;;;;;;;12.95;6.55;;;;;;;24.99;49.41;95357.84;5003076;28;20033;-51
2022/06/16 05:38:05;;;;;;;9.13;5.85;;;;;;;25.10;48.52;95358.50;5000010;28;20022;-50
2022/06/16 05:40:31;;;;;;;10.80;7.10;;;;;;;25.08;51.42;95365.72;5004207;28;20034;-50
2022/06/16 05:42:57;;;;;;;8.60;6.75;;;;;;;25.07;48.73;95364.97;5001529;28;20674;-49
2022/06/16 05:45:22;;;;;;;11.82;6.45;;;;;;;25.14;48.84;95369.13;5001475;28;20022;-49
2022/06/16 05:47:47;;;;;;;9.13;7.25;;;;;;;25.15;48.13;95371.34;5002338;28;20025;-51
2022/06/16 05:50:17;;;;;;;10.60;6.43;;;;;;;25.16;48.05;95372.13;5001601;28;20551;-51
2022/06/16 05:52:43;;;;;;;;;;;;;;;25.21;47.87;95372.03;5002374;28;20095;-49
2022/06/16 05:55:11;;;;;;;10.52;6.40;;;;;;;25.37;47.14;95371.13;5001853;28;19914;-50
2022/06/16 05:57:36;;;;;;;10.88;5.82;;;;;;;25.48;47.15;95365.53;5000107;28;20025;-50
2022/06/16 06:00:03;;;;;;;11.27;6.50;;;;;;;25.48;47.15;95365.53;4985484;28;20049;-51
2022/06/16 06:02:28;;;;;;;11.30;7.15;;;;;;;25.54;47.18;95369.69;5001821;28;20034;-50
2022/06/16 06:04:54;;;;;;;10.40;6.85;;;;;;;25.67;47.28;95366.34;5003454;28;20088;-52
2022/06/16 06:07:19;;;;;;;10.75;6.60;;;;;;;25.78;47.10;95366.19;5002230;28;20041;-50
2022/06/16 06:18:17;;;;;;;11.70;7.40;;;;;;;26.14;46.35;95366.19;4999464;28;20786;-49
2022/06/16 06:20:43;;;;;;;12.45;7.47;;;;;;;26.16;46.51;95363.69;4985740;28;20030;-50
2022/06/16 06:23:08;;;;;;;16.15;7.70;;;;;;;26.22;46.42;95367.09;5002268;28;20551;-51
2022/06/16 06:25:34;;;;;;;10.38;7.15;;;;;;;26.31;46.30;95364.00;5001868;28;20030;-50
2022/06/16 06:27:59;;;;;;;12.10;8.68;;;;;;;26.45;46.13;95371.75;5003378;28;20026;-50
2022/06/16 06:30:28;;;;;;;14.20;9.38;;;;;;;26.54;45.74;95370.63;4986360;28;20419;-51
2022/06/16 06:32:54;;;;;;;13.73;10.20;;;;;;;26.41;46.01;95368.59;5000398;28;20056;-50
2022/06/16 06:35:20;;;;;;;14.52;10.65;;;;;;;26.54;46.08;95371.34;5000838;28;20068;-51
2022/06/16 06:37:46;;;;;;;12.73;10.15;;;;;;;26.51;45.63;95379.88;5001391;28;20421;-48
2022/06/16 06:40:20;;;;;;;13.52;9.43;;;;;;;26.41;46.19;95367.81;5001008;28;20018;-50
2022/06/16 06:42:46;;;;;;;13.90;10.05;;;;;;;26.35;46.73;95378.13;4999025;28;20034;-51
2022/06/16 06:45:11;;;;;;;13.43;10.55;;;;;;;26.26;46.89;95373.00;5006980;28;20059;-49
2022/06/16 06:47:37;;;;;;;14.30;9.85;;;;;;;26.33;46.86;95377.91;4998842;28;20017;-49
2022/06/16 06:50:02;;;;;;;14.02;9.48;;;;;;;26.08;47.44;95373.75;5001188;28;20053;-47
2022/06/16 06:52:28;;;;;;;14.30;9.60;;;;;;;25.96;47.62;95372.44;4982176;28;20091;-51
2022/06/16 06:54:54;;;;;;;13.15;9.98;;;;;;;26.04;47.53;95372.59;5000395;28;20020;-50
2022/06/16 06:57:22;;;;;;;12.48;9.68;;;;;;;25.89;47.85;95370.28;4998275;28;20018;-50
2022/06/16 06:59:47;;;;;;;16.52;10.82;;;;;;;25.96;47.31;95364.22;4998789;28;20102;-51
2022/06/16 07:02:14;;;;;;;12.43;9.27;;;;;;;25.80;47.91;95370.66;4999873;28;20026;-50
2022/06/16 07:04:40;;;;;;;12.55;10.00;;;;;;;25.81;47.96;95372.13;5000224;28;20120;-50
2022/06/16 07:07:05;;;;;;;15.55;9.93;;;;;;;25.83;47.79;95369.63;4998630;28;20029;-50
2022/06/16 07:09:31;;;;;;;14.57;9.90;;;;;;;25.71;48.40;95374.97;4998535;28;20398;-50
2022/06/16 07:11:56;;;;;;;13.88;9.55;;;;;;;25.72;48.81;95368.25;5002293;28;20042;-50
2022/06/16 07:14:22;;;;;;;13.70;9.43;;;;;;;25.63;49.04;95365.84;4997445;28;20037;-50
2022/06/16 07:16:49;;;;;;;14.02;9.65;;;;;;;25.70;48.84;95365.31;4978432;28;20119;-51
2022/06/16 07:19:15;;;;;;;14.23;9.73;;;;;;;25.74;49.01;95365.75;5000038;28;20026;-51
2022/06/16 07:21:40;;;;;;;16.95;10.00;;;;;;;25.67;49.29;95366.34;5003855;28;20136;-49
2022/06/16 07:24:06;;;;;;;14.85;11.25;;;;;;;25.59;49.02;95365.41;4998076;28;20037;-50
2022/06/16 07:26:32;;;;;;;16.83;11.05;;;;;;;25.61;49.04;95368.38;4998458;28;20034;-51
2022/06/16 07:29:00;;;;;;;17.80;11.77;;;;;;;25.47;49.15;95356.59;5008170;28;20029;-49
2022/06/16 07:31:26;;;;;;;14.98;11.20;;;;;;;25.51;49.11;95353.56;4982301;28;20022;-49
2022/06/16 07:33:51;;;;;;;16.48;11.18;;;;;;;25.52;49.03;95355.06;5000735;28;20063;-49
2022/06/16 07:36:17;;;;;;;14.20;11.15;;;;;;;25.55;49.26;95359.50;4999567;28;20108;-50
2022/06/16 07:38:42;;;;;;;17.95;11.75;;;;;;;25.54;49.69;95358.00;4996788;28;20029;-50
2022/06/16 07:43:53;;;;;;;15.85;12.18;;;;;;;25.46;50.09;95351.66;4998393;28;20267;-51
2022/06/16 07:46:21;;;;;;;17.75;12.75;;;;;;;25.44;49.90;95348.66;4999942;28;20056;-49
2022/06/16 07:48:47;;;;;;;18.92;12.27;;;;;;;25.44;49.88;95343.97;4996432;28;20096;-50
2022/06/16 07:51:12;;;;;;;17.08;11.70;;;;;;;25.40;49.96;95348.22;4981670;28;20413;-50
2022/06/16 07:53:38;;;;;;;17.65;12.52;;;;;;;25.40;50.22;95348.22;4999489;28;20037;-49
2022/06/16 07:56:04;;;;;;;19.35;12.48;;;;;;;25.38;50.40;95350.72;5001743;28;20037;-51
2022/06/16 07:58:31;;;;;;;18.90;12.85;;;;;;;25.35;50.27;95351.75;5001526;28;20032;-50
2022/06/16 08:00:57;;;;;;;18.92;13.35;;;;;;;25.32;49.69;95348.06;5001628;28;20421;-51
2022/06/16 08:03:26;;;;;;;18.13;12.20;;;;;;;25.33;49.84;95355.03;4982803;28;20022;-50
2022/06/16 08:05:53;;;;;;;18.85;13.35;;;;;;;25.35;49.88;95346.28;5002646;28;20651;-50
2022/06/16 08:08:22;;;;;;;18.10;12.57;;;;;;;25.34;49.77;95344.81;5000697;28;20448;-49
2022/06/16 08:10:47;;;;;;;16.00;12.00;;;;;;;25.38;49.30;95362.41;5000474;28;20113;-51
2022/06/16 08:13:13;;;;;;;20.17;13.25;;;;;;;25.37;49.11;95352.00;4999595;28;20749;-51
2022/06/16 08:15:39;;;;;;;17.35;13.75;;;;;;;25.34;49.22;95344.81;5016662;28;20037;-51
2022/06/16 08:18:04;;;;;;;17.90;12.80;;;;;;;25.36;49.45;95348.50;5001770;28;20096;-51
2022/06/16 08:20:30;;;;;;;18.67;13.57;;;;;;;25.39;49.41;95347.47;4986812;28;20065;-51
2022/06/16 08:22:55;;;;;;;19.27;13.05;;;;;;;25.41;49.08;95355.16;5004498;28;20033;-50
2022/06/16 08:25:21;;;;;;;20.45;13.73;;;;;;;25.36;48.78;95350.50;4999813;28;20038;-51
2022/06/16 08:27:47;;;;;;;20.25;13.65;;;;;;;25.36;48.75;95353.25;4999998;28;20485;-51
2022/06/16 08:30:14;;;;;;;19.17;13.43;;;;;;;25.40;48.71;95353.69;5002073;28;20041;-49
2022/06/16 08:32:40;;;;;;;18.48;12.90;;;;;;;25.38;48.25;95356.19;4980964;28;20109;-49
2022/06/16 08:35:06;;;;;;;18.95;13.70;;;;;;;25.39;48.69;95363.16;5000511;28;20112;-51
2022/06/16 08:37:31;;;;;;;17.00;12.98;;;;;;;25.34;48.19;95363.97;4999134;28;20497;-49
2022/06/16 08:39:57;;;;;;;20.95;14.00;;;;;;;25.37;48.39;95360.94;5003374;28;20056;-50
2022/06/16 08:42:29;;;;;;;20.35;14.40;;;;;;;25.36;48.50;95353.97;5003548;28;20041;-49
2022/06/16 08:45:16;;;;;;;19.30;13.05;;;;;;;25.35;48.29;95357.22;5003774;28;20030;-52
2022/06/16 08:48:07;;;;;;;18.80;12.55;;;;;;;25.32;47.60;95352.81;5001859;28;20121;-49
2022/06/16 08:50:51;;;;;;;17.90;13.07;;;;;;;25.31;47.92;95361.53;4997291;28;20140;-51
2022/06/16 08:53:30;;;;;;;18.40;12.73;;;;;;;25.35;48.09;95351.75;5004896;28;20479;-51
2022/06/16 08:56:07;;;;;;;17.92;12.95;;;;;;;25.38;47.82;95348.00;4987951;28;20029;-50
2022/06/16 08:58:50;;;;;;;17.52;13.20;;;;;;;25.41;47.91;95347.72;4986843;28;20938;-48
2022/06/16 09:01:44;;;;;;;18.33;12.85;;;;;;;25.41;47.63;95344.22;4998998;28;20057;-49
2022/06/16 09:04:09;;;;;;;17.85;12.68;;;;;;;25.40;48.09;95348.22;4996296;28;20136;-49
2022/06/16 09:06:59;;;;;;;16.83;12.93;;;;;;;25.49;47.75;95345.16;5004872;28;20112;-50
2022/06/16 09:12:46;;;;;;;17.80;12.27;;;;;;;25.55;47.33;95340.34;5002159;28;20599;-52
2022/06/16 09:15:20;;;;;;;17.80;12.52;;;;;;;25.43;47.12;95341.72;5001597;28;20026;-50
2022/06/16 09:18:03;;;;;;;15.55;12.65;;;;;;;25.46;47.00;95346.91;4981121;28;20092;-50
2022/06/16 09:20:40;;;;;;;14.52;11.52;;;;;;;25.57;47.07;95340.56;4983572;28;20053;-51
2022/06/16 09:23:40;;;;;;;15.82;12.27;;;;;;;25.59;46.47;95338.03;5001843;28;20214;-51
2022/06/16 09:26:09;;;;;;;15.85;11.90;;;;;;;25.72;46.16;95329.97;5002318;28;20497;-51
2022/06/16 09:28:50;;;;;;;16.70;12.70;;;;;;;25.70;46.61;95332.50;4988535;28;20050;-51
2022/06/16 09:31:21;;;;;;;16.30;12.23;;;;;;;25.86;46.29;95319.31;4982933;28;20017;-50
2022/06/16 09:33:53;;;;;;;14.90;12.00;;;;;;;26.02;46.71;95320.34;4985707;28;20092;-51
2022/06/16 09:36:26;;;;;;;15.27;12.00;;;;;;;26.06;46.38;95320.78;4985557;28;20036;-51
2022/06/16 09:38:56;;;;;;;15.43;12.27;;;;;;;26.21;46.10;95316.31;5002418;28;20026;-49
2022/06/16 09:44:37;;;;;;;15.07;11.82;;;;;;;26.47;45.24;95321.91;4990101;28;20099;-48
2022/06/16 09:47:06;;;;;;;15.25;11.10;;;;;;;26.60;44.35;95313.75;5011194;28;20057;-51
2022/06/16 09:49:44;;;;;;;15.27;11.35;;;;;;;26.55;43.69;95309.09;4985814;28;20034;-50
2022/06/16 09:52:23;;;;;;;16.48;11.35;;;;;;;26.66;42.63;95297.97;5001861;28;20036;-52
2022/06/16 09:54:55;;;;;;;15.35;10.85;;;;;;;26.52;43.10;95312.91;4980548;28;20037;-50
2022/06/16 09:57:24;;;;;;;13.82;10.30;;;;;;;26.67;42.95;95302.19;4981987;28;20049;-50
2022/06/16 09:59:52;;;;;;;15.15;11.15;;;;;;;26.78;42.76;95297.97;5001437;28;20033;-51
2022/06/16 10:02:23;;;;;;;14.93;11.40;;;;;;;27.07;42.58;95307.97;4968786;28;20080;-53
2022/06/16 10:04:52;;;;;;;15.07;11.15;;;;;;;27.20;42.65;95304.47;4985023;28;20038;-51
2022/06/16 10:07:28;;;;;;;;;;;;;;;27.30;41.86;95307.00;4983078;28;20026;-51
2022/06/16 10:10:02;;;;;;;14.43;11.45;;;;;;;27.40;41.46;95297.09;5015265;28;20308;-52
2022/06/16 10:12:30;;;;;;;13.07;11.07;;;;;;;27.53;41.56;95301.84;4999609;28;20060;-50
2022/06/16 10:15:22;;;;;;;15.23;10.73;;;;;;;27.62;41.65;95298.66;5003818;28;20061;-49
2022/06/16 10:17:47;;;;;;;15.48;10.93;;;;;;;27.74;41.24;95293.16;4995433;28;20038;-50
2022/06/16 10:20:14;;;;;;;14.10;10.73;;;;;;;27.77;41.30;95286.59;4999241;28;20029;-50
2022/06/16 10:22:42;;;;;;;15.55;10.75;;;;;;;27.87;40.47;95284.88;4966839;28;20029;-51
2022/06/16 10:25:15;;;;;;;13.85;11.30;;;;;;;27.85;40.09;95287.41;4980891;28;20083;-51
2022/06/16 10:27:49;;;;;;;13.82;10.98;;;;;;;27.99;39.78;95280.59;4985764;28;20049;-50
2022/06/16 10:30:22;;;;;;;14.00;11.30;;;;;;;28.08;39.63;95277.41;5000730;28;20034;-50
2022/06/16 10:32:57;;;;;;;12.93;10.55;;;;;;;28.12;40.26;95274.38;4997940;28;20026;-49
2022/06/16 10:35:23;;;;;;;12.98;10.13;;;;;;;28.23;40.25;95272.09;5000746;28;20110;-49
2022/06/16 10:37:50;;;;;;;13.38;10.57;;;;;;;28.28;40.18;95273.97;4999558;28;20540;-50
2022/06/16 10:40:19;;;;;;;13.30;9.95;;;;;;;28.39;40.29;95270.97;4983651;28;20030;-51
2022/06/16 10:42:50;;;;;;;13.52;10.52;;;;;;;28.40;39.78;95266.94;5001834;28;20037;-50
2022/06/16 10:45:20;;;;;;;14.98;11.10;;;;;;;28.54;39.20;95273.84;4983368;28;20033;-50
2022/06/16 10:47:55;;;;;;;12.82;10.40;;;;;;;28.53;38.80;95269.63;4982256;28;20574;-50
2022/06/16 10:50:28;;;;;;;13.13;10.65;;;;;;;28.65;39.53;95262.56;5001372;28;20022;-49
2022/06/16 10:52:59;;;;;;;12.75;10.05;;;;;;;28.59;38.92;95265.44;4966452;28;20088;-49
2022/06/16 10:55:29;;;;;;;15.25;10.50;;;;;;;28.29;38.94;95264.47;4996996;28;20033;-51
2022/06/16 10:58:17;;;;;;;12.77;9.95;;;;;;;28.51;39.09;95263.94;4999902;28;20081;-50
2022/06/16 11:00:43;;;;;;;13.90;11.05;;;;;;;28.53;38.93;95266.88;4999547;28;20547;-53
2022/06/16 11:03:17;;;;;;;13.88;10.50;;;;;;;28.54;38.74;95260.13;4984006;28;20041;-51
2022/06/16 11:06:01;;;;;;;12.90;10.50;;;;;;;28.49;38.17;95256.22;4998791;28;20026;-50
2022/06/16 11:08:38;;;;;;;13.75;10.55;;;;;;;28.46;39.09;95262.03;4981690;28;20042;-52
2022/06/16 11:11:04;;;;;;;13.60;10.90;;;;;;;28.36;38.48;95258.31;4985716;28;20140;-52
2022/06/16 11:13:32;;;;;;;13.85;10.23;;;;;;;28.28;38.86;95263.72;5002756;28;20040;-51
2022/06/16 11:15:58;;;;;;;12.60;10.40;;;;;;;28.21;39.19;95258.16;5006544;28;20044;-49
2022/06/16 11:18:26;;;;;;;12.48;10.25;;;;;;;28.04;38.64;95255.06;4985847;28;20061;-53
2022/06/16 11:20:53;;;;;;;13.05;10.13;;;;;;;27.99;39.17;95253.16;4991499;28;20034;-51
2022/06/16 11:23:29;;;;;;;12.88;10.10;;;;;;;28.02;39.39;95252.09;4989538;28;20025;-50
2022/06/16 11:26:00;;;;;;;14.48;10.80;;;;;;;28.02;39.13;95252.09;4997529;28;20025;-51
2022/06/16 11:28:26;;;;;;;13.35;10.63;;;;;;;27.92;39.50;95253.81;5000293;28;20501;-49
2022/06/16 11:30:51;;;;;;;13.35;10.25;;;;;;;27.93;39.51;95244.31;5001584;28;20061;-51
2022/06/16 11:34:09;;;;;;;15.40;10.52;;;;;;;27.79;39.49;95245.63;5001741;28;20084;-50
2022/06/16 11:36:26;;;;;;;13.18;9.73;;;;;;;27.77;39.35;95253.66;4994519;28;20053;-51
2022/06/16 11:39:19;;;;;;;12.40;10.30;;;;;;;27.76;39.92;95241.19;5000463;28;20025;-50
2022/06/16 11:41:46;;;;;;;13.38;10.05;;;;;;;27.73;39.84;95240.78;5004639;28;20061;-51
2022/06/16 11:44:14;;;;;;;12.30;9.68;;;;;;;27.71;39.60;95248.81;4986068;28;20061;-52
2022/06/16 11:46:52;;;;;;;12.27;9.93;;;;;;;27.76;39.12;95252.19;5003555;28;20025;-50
2022/06/16 11:49:20;;;;;;;14.85;10.32;;;;;;;27.64;39.69;95239.25;4986042;28;20086;-51
2022/06/16 11:52:07;;;;;;;13.02;10.05;;;;;;;27.59;40.02;95239.34;5000808;28;20034;-52
2022/06/16 11:54:40;;;;;;;11.65;9.52;;;;;;;27.60;40.19;95238.09;4997163;28;20049;-50
2022/06/16 11:57:21;;;;;;;13.18;10.02;;;;;;;27.58;40.49;95229.63;5000155;28;20042;-51
2022/06/16 11:59:52;;;;;;;13.35;10.15;;;;;;;27.60;40.09;95227.84;4994880;28;20037;-52
2022/06/16 12:02:24;;;;;;;15.38;9.73;;;;;;;27.57;40.44;95230.94;4998323;28;20191;-51
2022/06/16 12:04:56;;;;;;;11.60;9.50;;;;;;;27.55;40.33;95233.44;4978327;28;20042;-49
2022/06/16 12:07:46;;;;;;;12.32;9.50;;;;;;;27.58;40.69;95224.16;4981775;28;20042;-49